createdAt,value
2018-10-03T00:00:34.961Z,9.10
2018-10-03T00:03:04.814Z,9.10
2018-10-03T00:05:35.638Z,9.00
2018-10-03T00:08:10.502Z,9.00
2018-10-03T00:10:40.470Z,9.00
2018-10-03T00:13:10.374Z,9.00
2018-10-03T00:15:40.250Z,9.00
2018-10-03T00:18:15.976Z,9.00
2018-10-03T00:20:49.446Z,9.10
2018-10-03T00:23:19.278Z,9.10
2018-10-03T00:25:49.138Z,9.10
2018-10-03T00:28:19.030Z,9.20
2018-10-03T00:30:58.714Z,9.20
2018-10-03T00:33:29.499Z,9.20
2018-10-03T00:35:59.358Z,9.20
2018-10-03T00:38:32.938Z,9.20
2018-10-03T00:41:03.126Z,9.20
2018-10-03T00:43:32.982Z,9.20
2018-10-03T00:46:02.898Z,9.20
2018-10-03T00:48:32.802Z,9.20
2018-10-03T00:51:03.850Z,9.10
2018-10-03T00:53:33.750Z,9.20
2018-10-03T00:56:03.702Z,9.20
2018-10-03T00:58:38.169Z,9.20
2018-10-03T01:01:08.282Z,9.20
2018-10-03T01:03:50.722Z,9.20
2018-10-03T01:06:26.362Z,9.20
2018-10-03T01:08:56.234Z,9.20
2018-10-03T01:11:26.059Z,9.20
2018-10-03T01:13:55.862Z,9.20
2018-10-03T01:16:41.730Z,9.10
2018-10-03T01:19:13.530Z,9.10
2018-10-03T01:21:44.373Z,9.10
2018-10-03T01:24:17.325Z,9.10
2018-10-03T01:26:50.426Z,9.10
2018-10-03T01:29:21.255Z,9.10
2018-10-03T01:31:52.098Z,9.10
2018-10-03T01:34:26.000Z,9.20
2018-10-03T01:37:02.186Z,9.20
2018-10-03T01:39:32.101Z,9.20
2018-10-03T01:42:02.169Z,9.20
2018-10-03T01:44:39.466Z,9.20
2018-10-03T01:47:17.149Z,9.20
2018-10-03T01:49:50.537Z,9.20
2018-10-03T01:52:22.373Z,9.20
2018-10-03T01:54:54.206Z,9.30
2018-10-03T01:57:25.073Z,9.30
2018-10-03T02:00:03.169Z,9.20
2018-10-03T02:02:59.510Z,9.20
2018-10-03T02:05:35.257Z,9.20
2018-10-03T02:08:16.157Z,9.20
2018-10-03T02:10:52.269Z,9.20
2018-10-03T02:13:27.582Z,9.20
2018-10-03T02:15:59.453Z,9.20
2018-10-03T02:18:34.466Z,9.20
2018-10-03T02:21:11.923Z,9.20
2018-10-03T02:23:51.628Z,9.20
2018-10-03T02:26:23.501Z,9.30
2018-10-03T02:28:53.422Z,9.30
2018-10-03T02:31:25.249Z,9.30
2018-10-03T02:33:55.069Z,9.30
2018-10-03T02:36:26.893Z,9.30
2018-10-03T02:38:57.769Z,9.30
2018-10-03T02:41:28.630Z,9.30
2018-10-03T02:43:59.403Z,9.30
2018-10-03T02:46:35.902Z,9.40
2018-10-03T02:49:05.782Z,9.30
2018-10-03T02:51:42.654Z,9.30
2018-10-03T02:54:35.386Z,9.30
2018-10-03T02:57:08.594Z,9.30
2018-10-03T02:59:38.455Z,9.30
2018-10-03T03:02:11.499Z,9.30
2018-10-03T03:04:43.370Z,9.40
2018-10-03T03:07:13.177Z,9.40
2018-10-03T03:09:46.206Z,9.40
2018-10-03T03:12:16.106Z,9.40
2018-10-03T03:14:50.738Z,9.40
2018-10-03T03:17:21.539Z,9.40
2018-10-03T03:19:52.374Z,9.40
2018-10-03T03:22:33.886Z,9.40
2018-10-03T03:25:03.673Z,9.40
2018-10-03T03:27:38.316Z,9.40
2018-10-03T03:30:11.516Z,9.40
2018-10-03T03:32:42.358Z,9.40
2018-10-03T03:35:13.201Z,9.40
2018-10-03T03:37:43.998Z,9.40
2018-10-03T03:40:14.902Z,9.40
2018-10-03T03:43:01.201Z,9.40
2018-10-03T03:45:34.072Z,9.40
2018-10-03T03:48:04.878Z,9.40
2018-10-03T03:50:39.529Z,9.40
2018-10-03T03:53:16.385Z,9.40
2018-10-03T03:56:04.445Z,9.40
2018-10-03T03:58:36.250Z,9.40
2018-10-03T04:01:19.877Z,9.40
2018-10-03T04:03:52.935Z,9.40
2018-10-03T04:06:41.179Z,9.40
2018-10-03T04:09:15.770Z,9.50
2018-10-03T04:11:59.453Z,9.50
2018-10-03T04:14:33.206Z,9.40
2018-10-03T04:17:05.022Z,9.50
2018-10-03T04:19:34.861Z,9.50
2018-10-03T04:22:27.662Z,9.50
2018-10-03T04:24:57.658Z,9.50
2018-10-03T04:27:39.658Z,9.50
2018-10-03T04:30:28.850Z,9.50
2018-10-03T04:33:04.380Z,9.50
2018-10-03T04:35:43.907Z,9.50
2018-10-03T04:38:14.617Z,9.60
2018-10-03T04:40:46.464Z,9.60
2018-10-03T04:43:18.294Z,9.60
2018-10-03T04:45:50.065Z,9.60
2018-10-03T04:48:33.149Z,9.50
2018-10-03T04:51:03.030Z,9.50
2018-10-03T04:53:32.817Z,9.50
2018-10-03T04:56:04.698Z,9.50
2018-10-03T04:58:34.485Z,9.50
2018-10-03T05:01:08.069Z,9.60
2018-10-03T05:03:37.917Z,9.60
2018-10-03T05:06:09.045Z,9.50
2018-10-03T05:08:52.209Z,9.50
2018-10-03T05:11:22.094Z,9.50
2018-10-03T05:13:51.867Z,9.50
2018-10-03T05:16:27.801Z,9.50
2018-10-03T05:19:02.965Z,9.50
2018-10-03T05:21:32.781Z,9.60
2018-10-03T05:24:03.609Z,9.60
2018-10-03T05:26:43.189Z,9.60
2018-10-03T05:29:16.585Z,9.70
2018-10-03T05:31:47.441Z,9.70
2018-10-03T05:34:18.306Z,9.70
2018-10-03T05:36:49.253Z,9.70
2018-10-03T05:39:21.128Z,9.70
2018-10-03T05:41:53.029Z,9.70
2018-10-03T05:44:24.878Z,9.70
2018-10-03T05:47:01.490Z,9.70
2018-10-03T05:49:42.137Z,9.80
2018-10-03T05:52:33.065Z,9.80
2018-10-03T05:55:02.934Z,9.80
2018-10-03T05:57:38.894Z,9.90
2018-10-03T06:00:08.682Z,9.90
2018-10-03T06:02:38.685Z,9.80
2018-10-03T06:05:19.733Z,9.70
2018-10-03T06:07:53.925Z,9.70
2018-10-03T06:10:23.860Z,9.70
2018-10-03T06:13:01.931Z,9.70
2018-10-03T06:15:36.562Z,9.80
2018-10-03T06:18:07.377Z,9.80
2018-10-03T06:20:38.245Z,9.90
2018-10-03T06:23:08.310Z,10.00
2018-10-03T06:25:39.181Z,10.10
2018-10-03T06:28:13.395Z,10.20
2018-10-03T06:30:44.257Z,10.30
2018-10-03T06:33:16.091Z,10.30
2018-10-03T06:35:45.949Z,10.40
2018-10-03T06:38:15.849Z,10.40
2018-10-03T06:40:46.657Z,10.50
2018-10-03T06:43:20.649Z,10.50
2018-10-03T06:46:02.010Z,10.50
2018-10-03T06:48:35.425Z,10.50
2018-10-03T06:51:05.293Z,10.50
2018-10-03T06:53:36.229Z,10.50
2018-10-03T06:56:06.089Z,10.50
2018-10-03T06:58:37.939Z,10.40
2018-10-03T07:01:10.861Z,10.30
2018-10-03T07:03:40.725Z,10.30
2018-10-03T07:06:12.637Z,10.10
2018-10-03T07:08:48.448Z,10.00
2018-10-03T07:11:21.313Z,9.90
2018-10-03T07:13:58.645Z,9.90
2018-10-03T07:16:29.457Z,9.80
2018-10-03T07:19:03.253Z,9.80
2018-10-03T07:21:33.085Z,9.70
2018-10-03T07:24:03.920Z,9.70
2018-10-03T07:26:33.713Z,9.70
2018-10-03T07:29:03.545Z,9.60
2018-10-03T07:31:34.402Z,9.60
2018-10-03T07:34:15.053Z,9.60
2018-10-03T07:36:45.857Z,9.60
2018-10-03T07:39:16.769Z,9.60
2018-10-03T07:41:48.580Z,9.60
2018-10-03T07:44:20.465Z,9.60
2018-10-03T07:46:52.569Z,9.60
2018-10-03T07:49:26.421Z,9.60
2018-10-03T07:51:57.236Z,9.60
2018-10-03T07:54:27.036Z,9.60
2018-10-03T07:56:58.911Z,9.60
2018-10-03T07:59:31.781Z,9.70
2018-10-03T08:02:02.969Z,9.70
2018-10-03T08:04:47.433Z,9.70
2018-10-03T08:07:17.285Z,9.70
2018-10-03T08:09:48.212Z,9.70
2018-10-03T08:12:20.012Z,9.70
2018-10-03T08:14:55.181Z,9.70
2018-10-03T08:17:25.222Z,9.70
2018-10-03T08:19:57.029Z,9.70
2018-10-03T08:22:26.861Z,9.70
2018-10-03T08:24:57.694Z,9.80
2018-10-03T08:27:32.337Z,9.90
2018-10-03T08:30:03.276Z,10.00
2018-10-03T08:32:40.766Z,10.00
2018-10-03T08:35:11.537Z,10.20
2018-10-03T08:37:41.433Z,10.20
2018-10-03T08:40:13.426Z,10.30
2018-10-03T08:42:49.665Z,10.50
2018-10-03T08:45:20.538Z,10.70
2018-10-03T08:47:54.246Z,10.90
2018-10-03T08:50:29.637Z,11.30
2018-10-03T08:53:01.942Z,11.50
2018-10-03T08:55:32.405Z,11.30
2018-10-03T08:58:03.267Z,11.40
2018-10-03T09:00:33.031Z,11.60
2018-10-03T09:03:02.814Z,11.70
2018-10-03T09:05:32.645Z,11.70
2018-10-03T09:08:13.784Z,11.70
2018-10-03T09:10:45.861Z,11.70
2018-10-03T09:13:18.981Z,11.80
2018-10-03T09:15:55.353Z,11.90
2018-10-03T09:18:28.923Z,12.10
2018-10-03T09:21:01.813Z,12.20
2018-10-03T09:23:35.629Z,12.40
2018-10-03T09:26:06.492Z,12.90
2018-10-03T09:28:36.434Z,13.40
2018-10-03T09:31:07.341Z,13.80
2018-10-03T09:33:51.517Z,14.10
2018-10-03T09:36:22.625Z,13.80
2018-10-03T09:39:00.729Z,13.80
2018-10-03T09:41:42.069Z,14.00
2018-10-03T09:44:15.193Z,14.70
2018-10-03T09:46:50.317Z,14.70
2018-10-03T09:49:22.185Z,15.20
2018-10-03T09:51:53.013Z,16.00
2018-10-03T09:54:23.821Z,15.20
2018-10-03T09:56:57.627Z,15.30
2018-10-03T09:59:29.485Z,16.30
2018-10-03T10:02:07.557Z,17.30
2018-10-03T10:04:44.457Z,18.10
2018-10-03T10:07:15.309Z,18.40
2018-10-03T10:09:45.173Z,17.70
2018-10-03T10:12:17.596Z,16.50
2018-10-03T10:14:48.485Z,15.70
2018-10-03T10:17:26.205Z,15.50
2018-10-03T10:19:58.045Z,15.60
2018-10-03T10:22:27.949Z,15.50
2018-10-03T10:24:59.164Z,14.90
2018-10-03T10:27:34.852Z,14.90
2018-10-03T10:30:09.244Z,15.60
2018-10-03T10:32:40.161Z,17.70
2018-10-03T10:35:15.299Z,19.60
2018-10-03T10:37:45.151Z,20.90
2018-10-03T10:40:15.105Z,21.20
2018-10-03T10:42:48.637Z,21.20
2018-10-03T10:45:26.045Z,21.10
2018-10-03T10:47:59.625Z,21.40
2018-10-03T10:50:29.529Z,20.80
2018-10-03T10:52:59.216Z,20.90
2018-10-03T10:55:40.841Z,20.60
2018-10-03T10:58:17.709Z,20.90
2018-10-03T11:00:52.237Z,21.20
2018-10-03T11:03:28.520Z,23.50
2018-10-03T11:06:00.354Z,24.00
2018-10-03T11:08:30.160Z,24.80
2018-10-03T11:11:00.001Z,22.50
2018-10-03T11:13:29.775Z,19.30
2018-10-03T11:16:01.633Z,18.00
2018-10-03T11:18:33.464Z,17.00
2018-10-03T11:21:08.133Z,16.60
2018-10-03T11:23:42.277Z,16.20
2018-10-03T11:26:11.937Z,15.90
2018-10-03T11:28:43.825Z,15.80
2018-10-03T11:31:16.905Z,15.70
2018-10-03T11:33:48.741Z,15.30
2018-10-03T11:36:20.648Z,14.90
2018-10-03T11:38:50.569Z,15.00
2018-10-03T11:41:20.400Z,14.60
2018-10-03T11:43:53.344Z,14.50
2018-10-03T11:46:26.297Z,14.40
2018-10-03T11:48:57.124Z,15.10
2018-10-03T11:51:27.949Z,15.80
2018-10-03T11:54:01.250Z,16.10
2018-10-03T11:56:32.129Z,17.60
2018-10-03T11:59:03.972Z,19.30
2018-10-03T12:01:52.240Z,18.00
2018-10-03T12:04:24.083Z,16.50
2018-10-03T12:06:54.961Z,15.70
2018-10-03T12:09:24.881Z,15.60
2018-10-03T12:11:55.645Z,14.90
2018-10-03T12:14:27.508Z,14.70
2018-10-03T12:16:58.372Z,15.30
2018-10-03T12:19:29.180Z,17.40
2018-10-03T12:22:00.073Z,17.50
2018-10-03T12:24:31.924Z,17.60
2018-10-03T12:27:06.280Z,17.10
2018-10-03T12:29:37.108Z,16.00
2018-10-03T12:32:10.148Z,15.60
2018-10-03T12:34:39.948Z,15.30
2018-10-03T12:37:10.765Z,15.00
2018-10-03T12:39:42.632Z,15.30
2018-10-03T12:42:14.464Z,16.50
2018-10-03T12:44:44.659Z,18.00
2018-10-03T12:47:15.492Z,17.40
2018-10-03T12:49:45.325Z,16.60
2018-10-03T12:52:17.199Z,18.90
2018-10-03T12:54:48.288Z,21.30
2018-10-03T12:57:18.076Z,24.60
2018-10-03T12:59:48.904Z,25.20
2018-10-03T13:02:18.734Z,22.40
2018-10-03T13:04:49.542Z,21.00
2018-10-03T13:07:23.657Z,18.80
2018-10-03T13:09:56.877Z,18.20
2018-10-03T13:12:31.028Z,19.80
2018-10-03T13:15:09.277Z,19.40
2018-10-03T13:17:40.016Z,20.60
2018-10-03T13:20:10.864Z,22.50
2018-10-03T13:22:46.162Z,24.30
2018-10-03T13:25:16.004Z,24.60
2018-10-03T13:27:51.736Z,24.60
2018-10-03T13:30:22.612Z,23.20
2018-10-03T13:32:55.440Z,21.00
2018-10-03T13:35:37.857Z,19.90
2018-10-03T13:38:13.880Z,19.00
2018-10-03T13:40:55.658Z,17.80
2018-10-03T13:43:27.432Z,17.70
2018-10-03T13:45:58.512Z,17.50
2018-10-03T13:48:30.429Z,17.60
2018-10-03T13:51:00.342Z,17.50
2018-10-03T13:53:31.165Z,19.80
2018-10-03T13:56:00.998Z,21.70
2018-10-03T13:58:37.145Z,22.70
2018-10-03T14:01:07.072Z,23.90
2018-10-03T14:03:37.887Z,24.40
2018-10-03T14:06:08.685Z,24.20
2018-10-03T14:08:38.509Z,23.10
2018-10-03T14:11:09.474Z,22.80
2018-10-03T14:13:39.281Z,21.30
2018-10-03T14:16:10.164Z,20.50
2018-10-03T14:18:40.060Z,20.50
2018-10-03T14:21:09.914Z,21.90
2018-10-03T14:23:41.789Z,21.90
2018-10-03T14:26:19.188Z,20.70
2018-10-03T14:28:51.017Z,20.00
2018-10-03T14:31:25.393Z,20.10
2018-10-03T14:33:57.236Z,19.10
2018-10-03T14:36:29.128Z,19.40
2018-10-03T14:39:00.077Z,20.80
2018-10-03T14:41:31.009Z,20.50
2018-10-03T14:44:04.333Z,20.50
2018-10-03T14:46:38.762Z,20.00
2018-10-03T14:49:10.525Z,19.80
2018-10-03T14:51:42.309Z,18.80
2018-10-03T14:54:12.241Z,18.40
2018-10-03T14:56:54.036Z,18.30
2018-10-03T14:59:27.613Z,17.70
2018-10-03T15:01:59.537Z,17.40
2018-10-03T15:04:32.460Z,16.70
2018-10-03T15:07:04.280Z,15.90
2018-10-03T15:09:37.201Z,15.50
2018-10-03T15:12:11.100Z,15.30
2018-10-03T15:14:41.893Z,15.40
2018-10-03T15:17:13.768Z,15.40
2018-10-03T15:19:46.880Z,15.30
2018-10-03T15:22:22.385Z,15.00
2018-10-03T15:24:53.257Z,14.70
2018-10-03T15:27:26.965Z,14.60
2018-10-03T15:29:57.896Z,14.50
2018-10-03T15:32:29.653Z,14.30
2018-10-03T15:34:59.453Z,14.30
2018-10-03T15:37:30.286Z,14.30
2018-10-03T15:40:00.075Z,14.10
2018-10-03T15:42:29.908Z,13.90
2018-10-03T15:44:59.757Z,13.80
2018-10-03T15:47:36.004Z,13.70
2018-10-03T15:50:06.577Z,13.60
2018-10-03T15:52:37.737Z,13.50
2018-10-03T15:55:11.389Z,13.40
2018-10-03T15:57:41.252Z,13.30
2018-10-03T16:00:12.169Z,13.30
2018-10-03T16:02:43.041Z,13.20
2018-10-03T16:05:13.897Z,13.20
2018-10-03T16:07:54.481Z,13.10
2018-10-03T16:10:25.343Z,13.00
2018-10-03T16:12:57.644Z,13.00
2018-10-03T16:15:29.529Z,12.80
2018-10-03T16:17:59.312Z,12.70
2018-10-03T16:20:36.217Z,12.60
2018-10-03T16:23:12.576Z,12.40
2018-10-03T16:25:45.864Z,12.20
2018-10-03T16:28:15.648Z,12.20
2018-10-03T16:30:45.477Z,12.10
2018-10-03T16:33:15.283Z,12.00
2018-10-03T16:35:47.146Z,11.90
2018-10-03T16:38:16.971Z,11.70
2018-10-03T16:40:50.409Z,11.70
2018-10-03T16:43:21.189Z,11.60
2018-10-03T16:45:56.879Z,11.50
2018-10-03T16:48:30.269Z,11.30
2018-10-03T16:51:01.165Z,11.20
2018-10-03T16:53:42.697Z,11.00
2018-10-03T16:56:12.694Z,10.90
2018-10-03T16:58:43.524Z,10.80
2018-10-03T17:01:13.321Z,10.80
2018-10-03T17:03:46.904Z,10.70
2018-10-03T17:06:19.924Z,10.60
2018-10-03T17:08:59.484Z,10.40
2018-10-03T17:11:29.580Z,10.20
2018-10-03T17:14:35.329Z,10.00
2018-10-03T17:17:06.356Z,9.90
2018-10-03T17:19:43.164Z,9.70
2018-10-03T17:22:13.089Z,9.70
2018-10-03T17:24:43.000Z,9.60
2018-10-03T17:27:37.531Z,9.60
2018-10-03T17:30:13.300Z,9.50
2018-10-03T17:32:48.604Z,9.50
2018-10-03T17:35:20.504Z,9.50
2018-10-03T17:37:57.008Z,9.40
2018-10-03T17:40:26.921Z,9.30
2018-10-03T17:42:58.648Z,9.40
2018-10-03T17:45:35.792Z,9.30
2018-10-03T17:48:05.928Z,9.30
2018-10-03T17:50:37.407Z,9.20
2018-10-03T17:53:12.072Z,9.10
2018-10-03T17:55:42.515Z,9.10
2018-10-03T17:58:17.300Z,9.00
2018-10-03T18:00:49.157Z,9.00
2018-10-03T18:03:24.260Z,8.80
2018-10-03T18:05:54.325Z,8.60
2018-10-03T18:08:24.184Z,8.50
2018-10-03T18:11:00.026Z,8.50
2018-10-03T18:13:31.911Z,8.40
2018-10-03T18:16:06.162Z,8.20
2018-10-03T18:18:37.956Z,7.90
2018-10-03T18:21:07.764Z,7.80
2018-10-03T18:23:37.544Z,7.80
2018-10-03T18:26:07.470Z,7.80
2018-10-03T18:28:37.440Z,7.80
2018-10-03T18:31:09.296Z,7.80
2018-10-03T18:33:43.656Z,7.80
2018-10-03T18:36:13.581Z,7.70
2018-10-03T18:38:45.400Z,7.70
2018-10-03T18:41:15.245Z,7.80
2018-10-03T18:43:46.052Z,7.70
2018-10-03T18:46:15.848Z,7.60
2018-10-03T18:48:57.369Z,7.50
2018-10-03T18:51:27.293Z,7.30
2018-10-03T18:53:57.157Z,7.20
2018-10-03T18:56:27.912Z,7.10
2018-10-03T18:58:57.748Z,7.00
2018-10-03T19:01:27.673Z,6.90
2018-10-03T19:03:57.568Z,7.00
2018-10-03T19:06:28.477Z,7.00
2018-10-03T19:08:59.257Z,7.00
2018-10-03T19:11:30.173Z,7.00
2018-10-03T19:14:04.820Z,7.00
2018-10-03T19:16:36.680Z,7.10
2018-10-03T19:19:06.384Z,7.20
2018-10-03T19:21:37.188Z,7.20
2018-10-03T19:24:10.612Z,7.30
2018-10-03T19:26:57.620Z,7.30
2018-10-03T19:29:29.500Z,7.30
2018-10-03T19:32:00.423Z,7.30
2018-10-03T19:34:30.372Z,7.40
2018-10-03T19:37:05.664Z,7.50
2018-10-03T19:39:35.531Z,7.50
2018-10-03T19:42:06.476Z,7.50
2018-10-03T19:44:36.432Z,7.50
2018-10-03T19:47:09.788Z,7.40
2018-10-03T19:49:40.868Z,7.30
2018-10-03T19:52:11.692Z,7.20
2018-10-03T19:54:43.584Z,7.10
2018-10-03T19:57:14.380Z,7.00
2018-10-03T19:59:45.183Z,6.90
2018-10-03T20:02:15.028Z,6.70
2018-10-03T20:04:45.036Z,6.60
2018-10-03T20:07:14.881Z,6.60
2018-10-03T20:09:48.220Z,6.50
2018-10-03T20:12:26.012Z,6.50
2018-10-03T20:14:57.780Z,6.30
2018-10-03T20:17:28.640Z,6.10
2018-10-03T20:20:00.504Z,6.00
2018-10-03T20:22:33.256Z,5.80
2018-10-03T20:25:10.493Z,5.80
2018-10-03T20:27:43.946Z,5.70
2018-10-03T20:30:23.428Z,5.70
2018-10-03T20:32:54.244Z,5.90
2018-10-03T20:35:24.113Z,6.20
2018-10-03T20:37:54.004Z,6.30
2018-10-03T20:40:23.892Z,6.40
2018-10-03T20:42:53.680Z,6.40
2018-10-03T20:45:24.560Z,6.50
2018-10-03T20:47:58.956Z,6.40
2018-10-03T20:50:31.920Z,6.40
2018-10-03T20:53:01.772Z,6.20
2018-10-03T20:55:34.826Z,6.10
2018-10-03T20:58:06.723Z,6.00
2018-10-03T21:00:36.581Z,6.10
2018-10-03T21:03:07.417Z,6.10
2018-10-03T21:05:42.492Z,6.20
2018-10-03T21:08:13.301Z,6.30
2018-10-03T21:10:45.205Z,6.20
2018-10-03T21:13:16.001Z,6.10
2018-10-03T21:15:45.824Z,6.10
2018-10-03T21:18:18.704Z,6.10
2018-10-03T21:20:50.560Z,6.10
2018-10-03T21:23:24.572Z,6.10
2018-10-03T21:25:54.357Z,6.20
2018-10-03T21:28:29.802Z,6.20
2018-10-03T21:30:59.628Z,6.30
2018-10-03T21:33:39.082Z,6.30
2018-10-03T21:36:08.880Z,6.30
2018-10-03T21:38:42.489Z,6.40
2018-10-03T21:41:19.800Z,6.50
2018-10-03T21:43:50.665Z,6.60
2018-10-03T21:46:21.424Z,6.70
2018-10-03T21:48:57.101Z,6.80
2018-10-03T21:51:32.140Z,6.90
2018-10-03T21:54:05.268Z,7.00
2018-10-03T21:56:46.948Z,7.00
2018-10-03T21:59:37.044Z,7.00
2018-10-03T22:02:06.896Z,7.00
2018-10-03T22:04:38.764Z,6.90
2018-10-03T22:07:10.640Z,7.00
2018-10-03T22:09:41.444Z,7.00
2018-10-03T22:12:14.213Z,7.00
2018-10-03T22:14:49.791Z,7.00
2018-10-03T22:17:39.089Z,6.90
2018-10-03T22:20:11.048Z,6.70
2018-10-03T22:22:46.210Z,6.50
2018-10-03T22:25:20.165Z,6.30
2018-10-03T22:27:55.542Z,6.20
2018-10-03T22:30:31.340Z,6.10
2018-10-03T22:33:06.593Z,6.10
2018-10-03T22:35:42.896Z,6.10
2018-10-03T22:38:17.193Z,6.10
2018-10-03T22:41:17.436Z,6.20
2018-10-03T22:43:57.144Z,6.30
2018-10-03T22:46:28.984Z,6.40
2018-10-03T22:49:06.937Z,6.50
2018-10-03T22:51:42.508Z,6.60
2018-10-03T22:54:12.348Z,6.70
2018-10-03T22:56:51.768Z,6.80
2018-10-03T22:59:25.949Z,6.90
2018-10-03T23:01:55.716Z,6.90
2018-10-03T23:04:29.472Z,6.90
2018-10-03T23:06:59.344Z,6.90
2018-10-03T23:09:34.036Z,7.00
2018-10-03T23:12:05.820Z,7.10
2018-10-03T23:14:41.613Z,7.10
2018-10-03T23:17:18.356Z,7.10
2018-10-03T23:19:55.129Z,7.10
2018-10-03T23:22:27.012Z,7.10
2018-10-03T23:25:02.768Z,7.10
2018-10-03T23:27:38.268Z,7.10
2018-10-03T23:30:11.263Z,7.20
2018-10-03T23:32:51.963Z,7.20
2018-10-03T23:35:21.960Z,7.20
2018-10-03T23:37:52.780Z,7.20
2018-10-03T23:40:36.164Z,7.20
2018-10-03T23:43:06.959Z,7.10
2018-10-03T23:45:36.828Z,7.10
2018-10-03T23:48:10.612Z,7.10
2018-10-03T23:50:40.719Z,7.10
2018-10-03T23:53:16.031Z,7.10
2018-10-03T23:55:48.864Z,7.00
2018-10-03T23:58:23.012Z,7.00
